Wind EuroAirport

Messzeit Windrichtung Windgeschwindigkeit [Knoten] Rückenwind Nordpiste [Knoten] METAR
2023-02-05 08:00 S 180° 3 - LFSB 050700Z AUTO 18003KT 6000 OVC006 02/02 Q1037 TEMPO 0800 FG VV///
2023-02-05 07:30 SW 210° 2 - LFSB 050630Z AUTO 21002KT 6000 OVC006 02/02 Q1037 TEMPO 0800 FG VV///
2023-02-05 07:00 NW 300° 2 2 LFSB 050600Z AUTO 30002KT 5000 BR OVC007 02/02 Q1037 TEMPO 0800 FG VV///
2023-02-05 06:30 - 2 - LFSB 050530Z AUTO VRB02KT 5000 BR OVC006 02/02 Q1036 TEMPO 0500 FG VV///
2023-02-05 06:00 S 160° 3 - LFSB 050500Z AUTO 16003KT 5000 BR OVC006 02/02 Q1036 TEMPO 0500 FG VV///
2023-02-05 05:30 S 160° 2 - LFSB 050430Z AUTO 16002KT 6000 OVC006 01/00 Q1036 TEMPO 0500 FG VV///
2023-02-05 05:00 S 160° 3 - LFSB 050400Z AUTO 16003KT 5000 BR OVC007 00/00 Q1036 TEMPO 0500 FG VV///
2023-02-05 04:30 - 1 - LFSB 050330Z AUTO VRB01KT 4900 1700 R15/1200N BR BKN010 M01/M01 Q1036 TEMPO 0500 FG VV///
2023-02-05 04:00 W 250° 1 - LFSB 050300Z AUTO 25001KT 3500 0650 R15/P2000 R33/P2000 BCFG BKN012 M01/M01 Q1037 TEMPO 0500 FG VV///
2023-02-05 03:30 - 0 - LFSB 050230Z AUTO 00000KT 4000 1300 R15/1300D R33/P2000 BR FEW012 M00/M01 Q1037 TEMPO 0500 FG VV///
2023-02-05 03:00 SW 220° 2 - LFSB 050200Z AUTO 22002KT 5000 BR FEW044 M00/M01 Q1037 TEMPO 0500 FG VV///
2023-02-05 02:30 - 1 - LFSB 050130Z AUTO VRB01KT 7000 BKN044 01/00 Q1038 TEMPO 0500 FG VV///
2023-02-05 02:00 SW 240° 1 - LFSB 050100Z AUTO 24001KT 6000 FEW032 BKN041 01/00 Q1037 TEMPO 0500 FG VV///
2023-02-05 01:30 W 250° 2 - LFSB 050030Z AUTO 25002KT 7000 FEW031 BKN043 00/M00 Q1037 TEMPO 0500 FG VV///
2023-02-05 01:00 SW 240° 2 - LFSB 050000Z AUTO 24002KT 7000 FEW038 BKN044 01/01 Q1037 TEMPO 4000 BR
2023-02-05 00:30 SW 210° 2 - LFSB 042330Z AUTO 21002KT 8000 FEW038 OVC044 01/01 Q1037 TEMPO 4000 BR
2023-02-05 00:00 SW 210° 1 - LFSB 042300Z AUTO 21001KT 8000 FEW034 OVC044 01/00 Q1037 TEMPO 4000 BR
2023-02-04 23:30 W 260° 2 - LFSB 042230Z AUTO 26002KT 7000 BKN042 BKN098 01/00 Q1037 TEMPO 4000 BR
2023-02-04 23:00 S 190° 1 - LFSB 042200Z AUTO 19001KT 9999 SCT037 BKN047 OVC098 02/02 Q1037 TEMPO 4000 BR
2023-02-04 22:30 - 1 - LFSB 042130Z AUTO VRB01KT 9999 FEW027 BKN046 OVC098 01/01 Q1037 TEMPO 4000 BR
2023-02-04 22:00 W 260° 3 1 LFSB 042100Z AUTO 26003KT 9999 BKN046 02/01 Q1037 TEMPO 4000 BR
2023-02-04 21:30 - 2 - LFSB 042030Z AUTO VRB02KT 9999 FEW047 SCT092 01/01 Q1037 TEMPO 4000 BR
2023-02-04 21:00 SW 240° 3 - LFSB 042000Z AUTO 24003KT 9999 FEW044 03/02 Q1036 TEMPO 4000 BR
2023-02-04 20:30 W 290° 3 2 LFSB 041930Z AUTO 29003KT 9999 FEW047 02/00 Q1036 TEMPO 4000 BR
2023-02-04 20:00 - 3 - LFSB 041900Z AUTO VRB03KT 9999 FEW010 04/01 Q1036 NOSIG
2023-02-04 19:30 N 350°
(320°–40°)
3 2–3 LFSB 041830Z AUTO 35003KT 320V040 CAVOK 04/02 Q1036 NOSIG
2023-02-04 19:00 NW 310° 8 7 LFSB 041800Z AUTO 31008KT 9999 FEW019 05/03 Q1036 NOSIG
2023-02-04 18:30 NW 300° 5 4 LFSB 041730Z AUTO 30005KT 9999 FEW015 SCT039 BKN090 05/03 Q1036 NOSIG
2023-02-04 18:00 NW 300° 4 3 LFSB 041700Z AUTO 30004KT 9999 FEW012 OVC090 06/04 Q1036 TEMPO BKN006 BECMG 4000 MIFG
2023-02-04 17:30 NW 330° 3 3 LFSB 041630Z AUTO 33003KT 9999 BKN036 OVC090 07/04 Q1036 TEMPO BKN006 BECMG 4000 MIFG
2023-02-04 17:00 N 350° 6 6 LFSB 041600Z AUTO 35006KT 9999 SCT035 OVC090 08/04 Q1035 TEMPO 4000 -DZ BKN006
2023-02-04 16:30 var 360°
(320°–20°)
6 5–6 LFSB 041530Z AUTO 36006KT 320V020 9999 SCT033 OVC092 08/04 Q1035 TEMPO 4000 -DZ BKN006
2023-02-04 16:00 N 340°
(310°–10°)
8 7–8 LFSB 041500Z AUTO 34008KT 310V010 9999 FEW022 BKN033 OVC092 09/05 Q1035 TEMPO 4000 -DZ BKN006
2023-02-04 15:30 N 350°
(300°–10°)
6 5–6 LFSB 041430Z AUTO 35006KT 300V010 9999 FEW019 BKN030 BKN042 09/05 Q1035 TEMPO 4000 -DZ BKN006
2023-02-04 15:00 N 10° 6 5 LFSB 041400Z AUTO 01006KT 9999 FEW017 BKN031 OVC038 08/05 Q1035 TEMPO 4000 -DZ BKN006
2023-02-04 14:30 N 10° 7 6 LFSB 041330Z AUTO 01007KT 9999 SCT012 BKN017 OVC033 08/05 Q1035 TEMPO 4000 -DZ BKN006
2023-02-04 14:00 NW 330° 8 8 LFSB 041300Z AUTO 33008KT 9999 BKN009 BKN013 BKN034 08/06 Q1035 TEMPO 4000 -DZ
2023-02-04 13:30 N 340° 8 8 LFSB 041230Z AUTO 34008KT 9999 BKN008 BKN012 OVC033 08/07 Q1035 TEMPO 4000 -DZ
2023-02-04 13:00 NW 320° 8 8 LFSB 041200Z AUTO 32008KT 9999 BKN006 OVC033 08/07 Q1035 TEMPO 4000 -DZ
2023-02-04 12:30 NW 320° 8 8 LFSB 041130Z AUTO 32008KT 4500 -DZ BR BKN005 OVC009 08/07 Q1035 NOSIG
2023-02-04 12:00 NW 310° 8 7 LFSB 041100Z AUTO 31008KT 8000 -DZ BKN006 BKN010 BKN020 08/07 Q1035 TEMPO 4000 -DZRA
2023-02-04 11:30 NW 330° 6 6 LFSB 041030Z AUTO 33006KT 6000 -DZ FEW007 SCT011 BKN018 08/07 Q1035 TEMPO BKN008
2023-02-04 11:00 - 3 - LFSB 041000Z AUTO VRB03KT 9999 SCT012 BKN023 BKN028 08/06 Q1034 TEMPO BKN008
2023-02-04 10:30 O 80° 3 - LFSB 040930Z AUTO 08003KT 9999 FEW012 OVC026 08/06 Q1034 TEMPO BKN008
2023-02-04 10:00 N 10°
(270°–70°)
3 0–3 LFSB 040900Z AUTO 01003KT 270V070 9999 FEW011 OVC027 07/05 Q1034 TEMPO BKN008
2023-02-04 09:30 W 250°
(210°–290°)
6 0–4 LFSB 040830Z AUTO 25006KT 210V290 9999 FEW011 OVC028 07/05 Q1034 TEMPO BKN008
2023-02-04 09:00 - 2 - LFSB 040800Z AUTO VRB02KT 9999 BKN011 OVC028 07/05 Q1034 TEMPO BKN008